sensor_id;sensor_type;location;lat;lon;timestamp;P1;durP1;ratioP1;P2;durP2;ratioP2
57567;SDS011;43403;51.948;5.922;2022-12-19T00:01:29;35.40;;;16.85;;
57567;SDS011;43403;51.948;5.922;2022-12-19T00:03:58;45.45;;;21.10;;
57567;SDS011;43403;51.948;5.922;2022-12-19T00:06:27;38.97;;;18.88;;
57567;SDS011;43403;51.948;5.922;2022-12-19T00:08:54;34.80;;;17.97;;
57567;SDS011;43403;51.948;5.922;2022-12-19T00:11:22;41.00;;;20.80;;
57567;SDS011;43403;51.948;5.922;2022-12-19T00:13:48;38.33;;;19.33;;
57567;SDS011;43403;51.948;5.922;2022-12-19T00:16:16;41.92;;;20.80;;
57567;SDS011;43403;51.948;5.922;2022-12-19T00:18:45;38.85;;;19.58;;
57567;SDS011;43403;51.948;5.922;2022-12-19T00:21:14;34.28;;;18.52;;
57567;SDS011;43403;51.948;5.922;2022-12-19T00:23:42;38.67;;;18.55;;
57567;SDS011;43403;51.948;5.922;2022-12-19T00:26:22;41.50;;;20.42;;
57567;SDS011;43403;51.948;5.922;2022-12-19T00:28:52;31.80;;;16.38;;
57567;SDS011;43403;51.948;5.922;2022-12-19T00:31:23;43.47;;;20.13;;
57567;SDS011;43403;51.948;5.922;2022-12-19T00:36:22;32.75;;;16.67;;
57567;SDS011;43403;51.948;5.922;2022-12-19T00:38:51;42.05;;;21.10;;
57567;SDS011;43403;51.948;5.922;2022-12-19T00:41:21;38.80;;;20.20;;
57567;SDS011;43403;51.948;5.922;2022-12-19T00:43:52;37.53;;;18.02;;
57567;SDS011;43403;51.948;5.922;2022-12-19T00:46:20;38.63;;;19.35;;
57567;SDS011;43403;51.948;5.922;2022-12-19T00:48:47;37.67;;;19.55;;
57567;SDS011;43403;51.948;5.922;2022-12-19T00:51:15;39.55;;;18.83;;
57567;SDS011;43403;51.948;5.922;2022-12-19T00:53:46;38.95;;;20.33;;
57567;SDS011;43403;51.948;5.922;2022-12-19T00:56:14;41.25;;;19.90;;
57567;SDS011;43403;51.948;5.922;2022-12-19T01:01:17;38.33;;;19.08;;
57567;SDS011;43403;51.948;5.922;2022-12-19T01:03:45;37.47;;;19.15;;
57567;SDS011;43403;51.948;5.922;2022-12-19T01:06:32;37.55;;;17.58;;
57567;SDS011;43403;51.948;5.922;2022-12-19T01:08:59;32.65;;;15.80;;
57567;SDS011;43403;51.948;5.922;2022-12-19T01:11:25;35.30;;;17.98;;
57567;SDS011;43403;51.948;5.922;2022-12-19T01:14:10;42.08;;;20.20;;
57567;SDS011;43403;51.948;5.922;2022-12-19T01:16:47;35.92;;;16.48;;
57567;SDS011;43403;51.948;5.922;2022-12-19T01:19:14;36.58;;;18.90;;
57567;SDS011;43403;51.948;5.922;2022-12-19T01:21:40;36.53;;;19.38;;
57567;SDS011;43403;51.948;5.922;2022-12-19T01:24:08;37.53;;;18.70;;
57567;SDS011;43403;51.948;5.922;2022-12-19T01:26:35;37.03;;;19.10;;
57567;SDS011;43403;51.948;5.922;2022-12-19T01:29:01;38.90;;;19.25;;
57567;SDS011;43403;51.948;5.922;2022-12-19T01:31:29;38.95;;;20.35;;
57567;SDS011;43403;51.948;5.922;2022-12-19T01:33:57;35.92;;;18.92;;
57567;SDS011;43403;51.948;5.922;2022-12-19T01:36:24;34.38;;;18.30;;
57567;SDS011;43403;51.948;5.922;2022-12-19T01:38:53;38.38;;;19.27;;
57567;SDS011;43403;51.948;5.922;2022-12-19T01:41:21;36.70;;;19.48;;
57567;SDS011;43403;51.948;5.922;2022-12-19T01:43:55;40.50;;;19.58;;
57567;SDS011;43403;51.948;5.922;2022-12-19T01:46:25;37.55;;;19.77;;
57567;SDS011;43403;51.948;5.922;2022-12-19T01:48:58;38.70;;;19.55;;
57567;SDS011;43403;51.948;5.922;2022-12-19T01:51:28;43.15;;;20.95;;
57567;SDS011;43403;51.948;5.922;2022-12-19T01:54:03;41.25;;;19.65;;
57567;SDS011;43403;51.948;5.922;2022-12-19T01:56:33;41.53;;;21.45;;
57567;SDS011;43403;51.948;5.922;2022-12-19T01:59:06;41.83;;;20.38;;
57567;SDS011;43403;51.948;5.922;2022-12-19T02:01:36;38.65;;;19.85;;
57567;SDS011;43403;51.948;5.922;2022-12-19T02:04:17;42.25;;;20.27;;
57567;SDS011;43403;51.948;5.922;2022-12-19T02:06:44;39.17;;;20.05;;
57567;SDS011;43403;51.948;5.922;2022-12-19T02:09:12;43.20;;;20.40;;
57567;SDS011;43403;51.948;5.922;2022-12-19T02:11:39;42.05;;;20.88;;
57567;SDS011;43403;51.948;5.922;2022-12-19T02:14:05;41.95;;;20.42;;
57567;SDS011;43403;51.948;5.922;2022-12-19T02:22:16;39.22;;;19.17;;
57567;SDS011;43403;51.948;5.922;2022-12-19T02:30:41;41.15;;;19.67;;
57567;SDS011;43403;51.948;5.922;2022-12-19T02:33:16;38.00;;;18.57;;
57567;SDS011;43403;51.948;5.922;2022-12-19T02:35:50;44.38;;;21.20;;
57567;SDS011;43403;51.948;5.922;2022-12-19T02:38:29;37.47;;;19.13;;
57567;SDS011;43403;51.948;5.922;2022-12-19T02:41:04;39.50;;;19.88;;
57567;SDS011;43403;51.948;5.922;2022-12-19T02:43:37;43.30;;;20.80;;
57567;SDS011;43403;51.948;5.922;2022-12-19T02:46:07;40.03;;;18.35;;
57567;SDS011;43403;51.948;5.922;2022-12-19T02:48:35;38.65;;;18.48;;
57567;SDS011;43403;51.948;5.922;2022-12-19T02:51:02;41.25;;;19.73;;
57567;SDS011;43403;51.948;5.922;2022-12-19T02:53:30;40.88;;;20.10;;
57567;SDS011;43403;51.948;5.922;2022-12-19T03:04:16;39.28;;;19.27;;
57567;SDS011;43403;51.948;5.922;2022-12-19T03:12:38;39.65;;;19.70;;
57567;SDS011;43403;51.948;5.922;2022-12-19T03:15:12;39.35;;;20.67;;
57567;SDS011;43403;51.948;5.922;2022-12-19T03:17:39;36.60;;;19.17;;
57567;SDS011;43403;51.948;5.922;2022-12-19T03:20:12;34.60;;;17.05;;
57567;SDS011;43403;51.948;5.922;2022-12-19T03:23:05;41.60;;;19.52;;
57567;SDS011;43403;51.948;5.922;2022-12-19T03:25:32;40.85;;;20.77;;
57567;SDS011;43403;51.948;5.922;2022-12-19T03:28:00;38.63;;;18.70;;
57567;SDS011;43403;51.948;5.922;2022-12-19T03:30:38;41.30;;;18.77;;
57567;SDS011;43403;51.948;5.922;2022-12-19T03:33:06;37.67;;;19.30;;
57567;SDS011;43403;51.948;5.922;2022-12-19T03:35:36;33.47;;;17.13;;
57567;SDS011;43403;51.948;5.922;2022-12-19T03:38:04;39.33;;;19.88;;
57567;SDS011;43403;51.948;5.922;2022-12-19T03:40:32;37.10;;;17.50;;
57567;SDS011;43403;51.948;5.922;2022-12-19T03:43:02;30.73;;;15.05;;
57567;SDS011;43403;51.948;5.922;2022-12-19T03:45:51;38.63;;;19.20;;
57567;SDS011;43403;51.948;5.922;2022-12-19T03:51:16;40.22;;;19.80;;
57567;SDS011;43403;51.948;5.922;2022-12-19T03:56:34;34.15;;;18.17;;
57567;SDS011;43403;51.948;5.922;2022-12-19T04:02:24;31.53;;;17.17;;
57567;SDS011;43403;51.948;5.922;2022-12-19T04:04:53;38.92;;;18.60;;
57567;SDS011;43403;51.948;5.922;2022-12-19T04:07:23;39.08;;;19.35;;
57567;SDS011;43403;51.948;5.922;2022-12-19T04:09:51;41.83;;;19.23;;
57567;SDS011;43403;51.948;5.922;2022-12-19T04:12:20;34.60;;;17.85;;
57567;SDS011;43403;51.948;5.922;2022-12-19T04:14:53;31.30;;;16.65;;
57567;SDS011;43403;51.948;5.922;2022-12-19T04:17:24;34.20;;;18.08;;
57567;SDS011;43403;51.948;5.922;2022-12-19T04:20:10;31.73;;;17.65;;
57567;SDS011;43403;51.948;5.922;2022-12-19T04:22:49;32.13;;;16.40;;
57567;SDS011;43403;51.948;5.922;2022-12-19T04:25:18;31.60;;;17.58;;
57567;SDS011;43403;51.948;5.922;2022-12-19T04:27:55;35.90;;;17.77;;
57567;SDS011;43403;51.948;5.922;2022-12-19T04:30:25;37.63;;;17.95;;
57567;SDS011;43403;51.948;5.922;2022-12-19T04:32:52;30.98;;;17.50;;
57567;SDS011;43403;51.948;5.922;2022-12-19T04:35:18;28.67;;;15.55;;
57567;SDS011;43403;51.948;5.922;2022-12-19T04:37:45;36.50;;;17.75;;
57567;SDS011;43403;51.948;5.922;2022-12-19T04:40:12;29.75;;;16.63;;
57567;SDS011;43403;51.948;5.922;2022-12-19T04:42:38;29.13;;;16.02;;
57567;SDS011;43403;51.948;5.922;2022-12-19T04:45:05;31.95;;;15.35;;
57567;SDS011;43403;51.948;5.922;2022-12-19T04:47:32;32.60;;;17.25;;
57567;SDS011;43403;51.948;5.922;2022-12-19T04:49:59;30.50;;;15.70;;
57567;SDS011;43403;51.948;5.922;2022-12-19T04:52:25;28.70;;;16.10;;
57567;SDS011;43403;51.948;5.922;2022-12-19T04:54:52;28.55;;;14.23;;
57567;SDS011;43403;51.948;5.922;2022-12-19T04:57:18;28.55;;;15.75;;
57567;SDS011;43403;51.948;5.922;2022-12-19T04:59:45;27.92;;;15.10;;
57567;SDS011;43403;51.948;5.922;2022-12-19T05:02:11;27.65;;;15.00;;
57567;SDS011;43403;51.948;5.922;2022-12-19T05:04:38;30.83;;;15.57;;
57567;SDS011;43403;51.948;5.922;2022-12-19T05:07:04;27.02;;;15.35;;
57567;SDS011;43403;51.948;5.922;2022-12-19T05:09:30;23.50;;;13.75;;
57567;SDS011;43403;51.948;5.922;2022-12-19T05:11:57;28.42;;;15.85;;
57567;SDS011;43403;51.948;5.922;2022-12-19T05:14:23;26.58;;;14.40;;
57567;SDS011;43403;51.948;5.922;2022-12-19T05:16:49;24.73;;;14.32;;
57567;SDS011;43403;51.948;5.922;2022-12-19T05:19:21;25.63;;;14.35;;
57567;SDS011;43403;51.948;5.922;2022-12-19T05:21:47;24.52;;;13.48;;
57567;SDS011;43403;51.948;5.922;2022-12-19T05:24:13;26.83;;;15.10;;
57567;SDS011;43403;51.948;5.922;2022-12-19T05:26:40;24.15;;;13.80;;
57567;SDS011;43403;51.948;5.922;2022-12-19T05:29:06;24.13;;;13.82;;
57567;SDS011;43403;51.948;5.922;2022-12-19T05:31:34;28.83;;;13.85;;
57567;SDS011;43403;51.948;5.922;2022-12-19T05:34:00;27.27;;;14.10;;
57567;SDS011;43403;51.948;5.922;2022-12-19T05:36:27;23.67;;;12.82;;
57567;SDS011;43403;51.948;5.922;2022-12-19T05:38:57;23.50;;;13.95;;
57567;SDS011;43403;51.948;5.922;2022-12-19T05:41:24;24.95;;;13.98;;
57567;SDS011;43403;51.948;5.922;2022-12-19T05:43:51;21.85;;;13.15;;
57567;SDS011;43403;51.948;5.922;2022-12-19T05:46:19;23.73;;;13.93;;
57567;SDS011;43403;51.948;5.922;2022-12-19T05:48:46;25.20;;;14.30;;
57567;SDS011;43403;51.948;5.922;2022-12-19T05:51:14;26.15;;;14.88;;
57567;SDS011;43403;51.948;5.922;2022-12-19T05:53:40;24.23;;;13.93;;
57567;SDS011;43403;51.948;5.922;2022-12-19T05:58:35;25.45;;;13.25;;
57567;SDS011;43403;51.948;5.922;2022-12-19T06:01:07;22.17;;;13.40;;
57567;SDS011;43403;51.948;5.922;2022-12-19T06:03:35;22.13;;;12.52;;
57567;SDS011;43403;51.948;5.922;2022-12-19T06:06:02;22.50;;;12.27;;
57567;SDS011;43403;51.948;5.922;2022-12-19T06:08:30;21.63;;;11.95;;
57567;SDS011;43403;51.948;5.922;2022-12-19T06:10:57;19.33;;;11.82;;
57567;SDS011;43403;51.948;5.922;2022-12-19T06:13:26;20.65;;;11.70;;
57567;SDS011;43403;51.948;5.922;2022-12-19T06:16:26;19.48;;;10.38;;
57567;SDS011;43403;51.948;5.922;2022-12-19T06:18:46;17.70;;;10.57;;
57567;SDS011;43403;51.948;5.922;2022-12-19T06:21:14;18.35;;;10.88;;
57567;SDS011;43403;51.948;5.922;2022-12-19T06:23:42;15.43;;;9.10;;
57567;SDS011;43403;51.948;5.922;2022-12-19T06:26:10;17.80;;;10.38;;
57567;SDS011;43403;51.948;5.922;2022-12-19T06:28:44;14.38;;;10.00;;
57567;SDS011;43403;51.948;5.922;2022-12-19T06:31:11;15.07;;;9.05;;
57567;SDS011;43403;51.948;5.922;2022-12-19T06:33:39;19.60;;;10.45;;
57567;SDS011;43403;51.948;5.922;2022-12-19T06:36:07;15.82;;;9.45;;
57567;SDS011;43403;51.948;5.922;2022-12-19T06:38:36;15.60;;;9.88;;
57567;SDS011;43403;51.948;5.922;2022-12-19T06:41:03;18.23;;;10.20;;
57567;SDS011;43403;51.948;5.922;2022-12-19T06:43:48;15.68;;;10.48;;
57567;SDS011;43403;51.948;5.922;2022-12-19T06:46:18;17.60;;;10.50;;
57567;SDS011;43403;51.948;5.922;2022-12-19T06:48:45;17.42;;;10.30;;
57567;SDS011;43403;51.948;5.922;2022-12-19T06:51:11;17.33;;;11.23;;
57567;SDS011;43403;51.948;5.922;2022-12-19T06:53:38;17.67;;;10.93;;
57567;SDS011;43403;51.948;5.922;2022-12-19T06:56:05;19.40;;;11.27;;
57567;SDS011;43403;51.948;5.922;2022-12-19T06:58:32;18.58;;;11.30;;
57567;SDS011;43403;51.948;5.922;2022-12-19T07:00:59;19.48;;;10.95;;
57567;SDS011;43403;51.948;5.922;2022-12-19T07:03:31;18.77;;;11.20;;
57567;SDS011;43403;51.948;5.922;2022-12-19T07:06:02;18.40;;;10.52;;
57567;SDS011;43403;51.948;5.922;2022-12-19T07:08:29;16.88;;;10.57;;
57567;SDS011;43403;51.948;5.922;2022-12-19T07:10:56;17.45;;;10.20;;
57567;SDS011;43403;51.948;5.922;2022-12-19T07:13:23;18.17;;;10.82;;
57567;SDS011;43403;51.948;5.922;2022-12-19T07:15:50;20.23;;;10.77;;
57567;SDS011;43403;51.948;5.922;2022-12-19T07:18:19;19.60;;;10.85;;
57567;SDS011;43403;51.948;5.922;2022-12-19T07:20:45;16.08;;;10.45;;
57567;SDS011;43403;51.948;5.922;2022-12-19T07:23:13;17.20;;;9.82;;
57567;SDS011;43403;51.948;5.922;2022-12-19T07:25:43;16.45;;;10.23;;
57567;SDS011;43403;51.948;5.922;2022-12-19T07:28:09;15.52;;;10.43;;
57567;SDS011;43403;51.948;5.922;2022-12-19T07:30:35;14.77;;;9.32;;
57567;SDS011;43403;51.948;5.922;2022-12-19T07:33:02;16.88;;;10.15;;
57567;SDS011;43403;51.948;5.922;2022-12-19T07:35:29;17.73;;;9.30;;
57567;SDS011;43403;51.948;5.922;2022-12-19T07:38:02;14.80;;;9.10;;
57567;SDS011;43403;51.948;5.922;2022-12-19T07:40:29;16.23;;;10.25;;
57567;SDS011;43403;51.948;5.922;2022-12-19T07:42:59;15.45;;;9.90;;
57567;SDS011;43403;51.948;5.922;2022-12-19T07:45:31;14.35;;;8.68;;
57567;SDS011;43403;51.948;5.922;2022-12-19T07:48:01;16.85;;;9.90;;
57567;SDS011;43403;51.948;5.922;2022-12-19T07:50:29;17.95;;;11.15;;
57567;SDS011;43403;51.948;5.922;2022-12-19T07:52:56;15.70;;;9.05;;
57567;SDS011;43403;51.948;5.922;2022-12-19T07:55:23;14.77;;;8.88;;
57567;SDS011;43403;51.948;5.922;2022-12-19T07:57:53;15.25;;;8.55;;
57567;SDS011;43403;51.948;5.922;2022-12-19T08:00:23;15.30;;;8.35;;
57567;SDS011;43403;51.948;5.922;2022-12-19T08:02:49;12.13;;;8.20;;
57567;SDS011;43403;51.948;5.922;2022-12-19T08:05:16;11.05;;;7.38;;
57567;SDS011;43403;51.948;5.922;2022-12-19T08:07:42;14.93;;;6.50;;
57567;SDS011;43403;51.948;5.922;2022-12-19T08:10:09;12.88;;;8.10;;
57567;SDS011;43403;51.948;5.922;2022-12-19T08:12:37;11.45;;;7.35;;
57567;SDS011;43403;51.948;5.922;2022-12-19T08:15:04;12.30;;;6.75;;
57567;SDS011;43403;51.948;5.922;2022-12-19T08:17:32;14.68;;;8.00;;
57567;SDS011;43403;51.948;5.922;2022-12-19T08:19:59;12.82;;;8.18;;
57567;SDS011;43403;51.948;5.922;2022-12-19T08:22:27;14.35;;;8.23;;
57567;SDS011;43403;51.948;5.922;2022-12-19T08:24:54;12.95;;;7.05;;
57567;SDS011;43403;51.948;5.922;2022-12-19T08:27:20;12.40;;;7.10;;
57567;SDS011;43403;51.948;5.922;2022-12-19T08:29:47;12.25;;;7.82;;
57567;SDS011;43403;51.948;5.922;2022-12-19T08:32:13;13.40;;;7.30;;
57567;SDS011;43403;51.948;5.922;2022-12-19T08:34:46;12.90;;;6.68;;
57567;SDS011;43403;51.948;5.922;2022-12-19T08:37:13;9.60;;;5.53;;
57567;SDS011;43403;51.948;5.922;2022-12-19T08:39:42;11.55;;;6.18;;
57567;SDS011;43403;51.948;5.922;2022-12-19T08:42:09;10.00;;;6.18;;
57567;SDS011;43403;51.948;5.922;2022-12-19T08:44:35;11.23;;;6.43;;
57567;SDS011;43403;51.948;5.922;2022-12-19T08:47:02;12.27;;;6.30;;
57567;SDS011;43403;51.948;5.922;2022-12-19T08:49:28;12.25;;;6.93;;
57567;SDS011;43403;51.948;5.922;2022-12-19T08:51:54;9.55;;;6.13;;
57567;SDS011;43403;51.948;5.922;2022-12-19T08:54:21;10.90;;;6.63;;
57567;SDS011;43403;51.948;5.922;2022-12-19T08:56:47;9.05;;;6.05;;
57567;SDS011;43403;51.948;5.922;2022-12-19T08:59:14;10.75;;;6.30;;
57567;SDS011;43403;51.948;5.922;2022-12-19T09:01:55;9.02;;;6.00;;
57567;SDS011;43403;51.948;5.922;2022-12-19T09:04:22;9.43;;;6.18;;
57567;SDS011;43403;51.948;5.922;2022-12-19T09:07:09;9.05;;;6.20;;
57567;SDS011;43403;51.948;5.922;2022-12-19T09:09:35;11.60;;;6.03;;
57567;SDS011;43403;51.948;5.922;2022-12-19T09:12:01;12.43;;;6.30;;
57567;SDS011;43403;51.948;5.922;2022-12-19T09:14:31;10.73;;;6.03;;
57567;SDS011;43403;51.948;5.922;2022-12-19T09:16:58;11.15;;;6.65;;
57567;SDS011;43403;51.948;5.922;2022-12-19T09:19:28;11.10;;;6.15;;
57567;SDS011;43403;51.948;5.922;2022-12-19T09:21:54;8.88;;;5.97;;
57567;SDS011;43403;51.948;5.922;2022-12-19T09:24:21;9.80;;;6.47;;
57567;SDS011;43403;51.948;5.922;2022-12-19T09:26:47;11.30;;;6.18;;
57567;SDS011;43403;51.948;5.922;2022-12-19T09:29:13;10.35;;;6.22;;
57567;SDS011;43403;51.948;5.922;2022-12-19T09:31:46;10.85;;;7.18;;
57567;SDS011;43403;51.948;5.922;2022-12-19T09:34:21;8.82;;;5.78;;
57567;SDS011;43403;51.948;5.922;2022-12-19T09:39:16;11.48;;;6.68;;
57567;SDS011;43403;51.948;5.922;2022-12-19T09:42:01;11.55;;;6.68;;
57567;SDS011;43403;51.948;5.922;2022-12-19T09:44:54;10.73;;;6.50;;
57567;SDS011;43403;51.948;5.922;2022-12-19T09:47:48;10.10;;;6.53;;
57567;SDS011;43403;51.948;5.922;2022-12-19T09:54:03;11.60;;;5.97;;
57567;SDS011;43403;51.948;5.922;2022-12-19T09:56:28;11.32;;;5.57;;
57567;SDS011;43403;51.948;5.922;2022-12-19T09:59:25;10.52;;;5.93;;
57567;SDS011;43403;51.948;5.922;2022-12-19T10:02:22;9.50;;;6.23;;
57567;SDS011;43403;51.948;5.922;2022-12-19T10:05:00;7.53;;;5.63;;
57567;SDS011;43403;51.948;5.922;2022-12-19T10:07:52;10.18;;;6.20;;
57567;SDS011;43403;51.948;5.922;2022-12-19T10:10:41;9.88;;;6.57;;
57567;SDS011;43403;51.948;5.922;2022-12-19T10:13:51;10.55;;;5.50;;
57567;SDS011;43403;51.948;5.922;2022-12-19T10:16:47;10.73;;;6.38;;
57567;SDS011;43403;51.948;5.922;2022-12-19T10:19:55;10.25;;;6.75;;
57567;SDS011;43403;51.948;5.922;2022-12-19T10:22:55;9.43;;;6.25;;
57567;SDS011;43403;51.948;5.922;2022-12-19T10:26:02;10.00;;;6.47;;
57567;SDS011;43403;51.948;5.922;2022-12-19T10:34:48;11.13;;;5.82;;
57567;SDS011;43403;51.948;5.922;2022-12-19T10:37:18;9.85;;;6.63;;
57567;SDS011;43403;51.948;5.922;2022-12-19T10:42:59;9.93;;;5.93;;
57567;SDS011;43403;51.948;5.922;2022-12-19T10:45:43;10.18;;;6.45;;
57567;SDS011;43403;51.948;5.922;2022-12-19T10:48:17;13.45;;;6.28;;
57567;SDS011;43403;51.948;5.922;2022-12-19T10:50:55;10.15;;;5.57;;
57567;SDS011;43403;51.948;5.922;2022-12-19T10:53:26;10.27;;;6.00;;
57567;SDS011;43403;51.948;5.922;2022-12-19T10:55:54;8.80;;;6.53;;
57567;SDS011;43403;51.948;5.922;2022-12-19T10:58:36;12.70;;;6.07;;
57567;SDS011;43403;51.948;5.922;2022-12-19T11:01:13;9.07;;;5.38;;
57567;SDS011;43403;51.948;5.922;2022-12-19T11:03:47;8.65;;;5.45;;
57567;SDS011;43403;51.948;5.922;2022-12-19T11:15:12;9.82;;;5.05;;
57567;SDS011;43403;51.948;5.922;2022-12-19T11:18:07;8.90;;;5.60;;
57567;SDS011;43403;51.948;5.922;2022-12-19T11:24:11;9.82;;;5.68;;
57567;SDS011;43403;51.948;5.922;2022-12-19T11:30:18;14.48;;;6.75;;
57567;SDS011;43403;51.948;5.922;2022-12-19T11:33:11;10.18;;;5.82;;
57567;SDS011;43403;51.948;5.922;2022-12-19T11:35:49;8.45;;;5.63;;
57567;SDS011;43403;51.948;5.922;2022-12-19T11:43:33;13.30;;;6.10;;
57567;SDS011;43403;51.948;5.922;2022-12-19T11:49:08;7.97;;;5.18;;
57567;SDS011;43403;51.948;5.922;2022-12-19T11:51:49;8.88;;;6.00;;
57567;SDS011;43403;51.948;5.922;2022-12-19T11:54:26;8.48;;;5.85;;
57567;SDS011;43403;51.948;5.922;2022-12-19T11:56:58;7.97;;;5.55;;
57567;SDS011;43403;51.948;5.922;2022-12-19T12:05:18;8.65;;;5.20;;
57567;SDS011;43403;51.948;5.922;2022-12-19T12:08:38;7.60;;;4.93;;
57567;SDS011;43403;51.948;5.922;2022-12-19T12:10:59;8.52;;;4.75;;
57567;SDS011;43403;51.948;5.922;2022-12-19T12:20:32;6.30;;;4.53;;
57567;SDS011;43403;51.948;5.922;2022-12-19T12:23:47;9.02;;;5.20;;
57567;SDS011;43403;51.948;5.922;2022-12-19T12:26:53;8.32;;;4.78;;
57567;SDS011;43403;51.948;5.922;2022-12-19T12:30:03;6.28;;;3.70;;
57567;SDS011;43403;51.948;5.922;2022-12-19T12:35:53;7.25;;;3.97;;
57567;SDS011;43403;51.948;5.922;2022-12-19T12:44:25;7.35;;;3.97;;
57567;SDS011;43403;51.948;5.922;2022-12-19T12:47:00;8.82;;;4.03;;
57567;SDS011;43403;51.948;5.922;2022-12-19T12:49:43;5.93;;;3.90;;
57567;SDS011;43403;51.948;5.922;2022-12-19T12:52:15;5.10;;;3.63;;
57567;SDS011;43403;51.948;5.922;2022-12-19T12:54:45;6.68;;;3.65;;
57567;SDS011;43403;51.948;5.922;2022-12-19T12:57:15;7.22;;;3.72;;
57567;SDS011;43403;51.948;5.922;2022-12-19T12:59:44;5.13;;;3.33;;
57567;SDS011;43403;51.948;5.922;2022-12-19T13:02:16;6.20;;;3.85;;
57567;SDS011;43403;51.948;5.922;2022-12-19T13:04:53;7.78;;;3.97;;
57567;SDS011;43403;51.948;5.922;2022-12-19T13:07:26;7.03;;;4.05;;
57567;SDS011;43403;51.948;5.922;2022-12-19T13:12:50;8.00;;;3.83;;
57567;SDS011;43403;51.948;5.922;2022-12-19T13:23:40;8.80;;;4.03;;
57567;SDS011;43403;51.948;5.922;2022-12-19T13:25:50;9.50;;;3.60;;
57567;SDS011;43403;51.948;5.922;2022-12-19T13:40:00;9.68;;;4.30;;
57567;SDS011;43403;51.948;5.922;2022-12-19T13:45:36;8.15;;;3.95;;
57567;SDS011;43403;51.948;5.922;2022-12-19T13:48:07;6.85;;;4.05;;
57567;SDS011;43403;51.948;5.922;2022-12-19T13:50:40;8.02;;;4.15;;
57567;SDS011;43403;51.948;5.922;2022-12-19T13:53:08;6.65;;;4.05;;
57567;SDS011;43403;51.948;5.922;2022-12-19T13:55:40;7.32;;;4.07;;
57567;SDS011;43403;51.948;5.922;2022-12-19T13:58:13;6.43;;;4.38;;
57567;SDS011;43403;51.948;5.922;2022-12-19T14:00:55;7.43;;;4.05;;
57567;SDS011;43403;51.948;5.922;2022-12-19T14:03:33;12.70;;;5.00;;
57567;SDS011;43403;51.948;5.922;2022-12-19T14:06:14;6.05;;;3.53;;
57567;SDS011;43403;51.948;5.922;2022-12-19T14:08:46;8.30;;;4.32;;
57567;SDS011;43403;51.948;5.922;2022-12-19T14:11:36;8.18;;;3.90;;
57567;SDS011;43403;51.948;5.922;2022-12-19T14:14:26;6.50;;;3.85;;
57567;SDS011;43403;51.948;5.922;2022-12-19T14:17:13;6.88;;;3.72;;
57567;SDS011;43403;51.948;5.922;2022-12-19T14:19:42;7.85;;;4.22;;
57567;SDS011;43403;51.948;5.922;2022-12-19T14:25:01;8.75;;;4.60;;
57567;SDS011;43403;51.948;5.922;2022-12-19T14:27:57;8.93;;;4.45;;
57567;SDS011;43403;51.948;5.922;2022-12-19T14:30:53;7.85;;;3.90;;
57567;SDS011;43403;51.948;5.922;2022-12-19T14:33:33;6.93;;;4.13;;
57567;SDS011;43403;51.948;5.922;2022-12-19T14:36:13;7.82;;;4.22;;
57567;SDS011;43403;51.948;5.922;2022-12-19T14:38:51;6.32;;;3.95;;
57567;SDS011;43403;51.948;5.922;2022-12-19T14:41:40;5.95;;;3.30;;
57567;SDS011;43403;51.948;5.922;2022-12-19T14:47:35;6.78;;;3.97;;
57567;SDS011;43403;51.948;5.922;2022-12-19T14:50:33;6.18;;;3.72;;
57567;SDS011;43403;51.948;5.922;2022-12-19T14:53:21;5.10;;;3.42;;
57567;SDS011;43403;51.948;5.922;2022-12-19T14:56:10;6.05;;;3.38;;
57567;SDS011;43403;51.948;5.922;2022-12-19T14:59:02;8.10;;;3.97;;
57567;SDS011;43403;51.948;5.922;2022-12-19T15:01:30;7.03;;;4.35;;
57567;SDS011;43403;51.948;5.922;2022-12-19T15:06:51;7.00;;;3.67;;
57567;SDS011;43403;51.948;5.922;2022-12-19T15:09:37;5.53;;;3.63;;
57567;SDS011;43403;51.948;5.922;2022-12-19T15:12:45;5.93;;;3.47;;
57567;SDS011;43403;51.948;5.922;2022-12-19T15:15:55;5.20;;;3.33;;
57567;SDS011;43403;51.948;5.922;2022-12-19T15:20:58;6.57;;;3.55;;
57567;SDS011;43403;51.948;5.922;2022-12-19T15:23:26;6.30;;;3.55;;
57567;SDS011;43403;51.948;5.922;2022-12-19T15:25:54;5.70;;;3.45;;
57567;SDS011;43403;51.948;5.922;2022-12-19T15:28:36;7.75;;;3.88;;
57567;SDS011;43403;51.948;5.922;2022-12-19T15:31:32;7.38;;;4.05;;
57567;SDS011;43403;51.948;5.922;2022-12-19T15:34:09;7.88;;;3.90;;
57567;SDS011;43403;51.948;5.922;2022-12-19T15:37:10;7.22;;;4.22;;
57567;SDS011;43403;51.948;5.922;2022-12-19T15:39:38;6.13;;;3.67;;
57567;SDS011;43403;51.948;5.922;2022-12-19T15:42:05;6.13;;;3.92;;
57567;SDS011;43403;51.948;5.922;2022-12-19T15:44:42;6.30;;;3.72;;
57567;SDS011;43403;51.948;5.922;2022-12-19T15:47:17;7.25;;;3.70;;
57567;SDS011;43403;51.948;5.922;2022-12-19T15:49:48;5.82;;;3.90;;
57567;SDS011;43403;51.948;5.922;2022-12-19T15:52:18;7.20;;;4.30;;
57567;SDS011;43403;51.948;5.922;2022-12-19T15:54:46;8.73;;;4.30;;
57567;SDS011;43403;51.948;5.922;2022-12-19T15:57:34;6.63;;;4.10;;
57567;SDS011;43403;51.948;5.922;2022-12-19T16:00:10;12.15;;;6.25;;
57567;SDS011;43403;51.948;5.922;2022-12-19T16:02:49;9.13;;;5.70;;
57567;SDS011;43403;51.948;5.922;2022-12-19T16:08:10;5.95;;;4.13;;
57567;SDS011;43403;51.948;5.922;2022-12-19T16:10:38;5.18;;;3.63;;
57567;SDS011;43403;51.948;5.922;2022-12-19T16:13:08;5.63;;;3.75;;
57567;SDS011;43403;51.948;5.922;2022-12-19T16:15:43;7.80;;;4.25;;
57567;SDS011;43403;51.948;5.922;2022-12-19T16:18:12;6.68;;;4.20;;
57567;SDS011;43403;51.948;5.922;2022-12-19T16:25:42;8.90;;;4.05;;
57567;SDS011;43403;51.948;5.922;2022-12-19T16:28:31;6.22;;;3.30;;
57567;SDS011;43403;51.948;5.922;2022-12-19T16:31:11;5.45;;;3.33;;
57567;SDS011;43403;51.948;5.922;2022-12-19T16:33:40;6.72;;;3.28;;
57567;SDS011;43403;51.948;5.922;2022-12-19T16:36:07;6.22;;;3.38;;
57567;SDS011;43403;51.948;5.922;2022-12-19T16:38:34;7.47;;;3.70;;
57567;SDS011;43403;51.948;5.922;2022-12-19T16:41:01;5.20;;;3.70;;
57567;SDS011;43403;51.948;5.922;2022-12-19T16:43:37;7.60;;;3.38;;
57567;SDS011;43403;51.948;5.922;2022-12-19T16:46:08;6.15;;;3.47;;
57567;SDS011;43403;51.948;5.922;2022-12-19T16:48:42;5.50;;;3.45;;
57567;SDS011;43403;51.948;5.922;2022-12-19T16:51:15;5.85;;;3.50;;
57567;SDS011;43403;51.948;5.922;2022-12-19T16:53:47;7.40;;;3.50;;
57567;SDS011;43403;51.948;5.922;2022-12-19T16:56:17;5.13;;;3.00;;
57567;SDS011;43403;51.948;5.922;2022-12-19T16:58:51;6.32;;;3.45;;
57567;SDS011;43403;51.948;5.922;2022-12-19T17:01:18;6.20;;;3.00;;
57567;SDS011;43403;51.948;5.922;2022-12-19T17:03:45;7.25;;;3.53;;
57567;SDS011;43403;51.948;5.922;2022-12-19T17:06:13;6.78;;;3.55;;
57567;SDS011;43403;51.948;5.922;2022-12-19T17:08:41;5.57;;;3.17;;
57567;SDS011;43403;51.948;5.922;2022-12-19T17:11:21;6.22;;;3.40;;
57567;SDS011;43403;51.948;5.922;2022-12-19T17:13:50;6.38;;;3.40;;
57567;SDS011;43403;51.948;5.922;2022-12-19T17:16:19;5.30;;;3.47;;
57567;SDS011;43403;51.948;5.922;2022-12-19T17:18:46;6.60;;;3.30;;
57567;SDS011;43403;51.948;5.922;2022-12-19T17:21:17;7.10;;;3.30;;
57567;SDS011;43403;51.948;5.922;2022-12-19T17:23:46;5.97;;;3.47;;
57567;SDS011;43403;51.948;5.922;2022-12-19T17:26:13;6.78;;;3.30;;
57567;SDS011;43403;51.948;5.922;2022-12-19T17:28:43;5.47;;;3.30;;
57567;SDS011;43403;51.948;5.922;2022-12-19T17:33:51;5.68;;;3.20;;
57567;SDS011;43403;51.948;5.922;2022-12-19T17:36:20;9.40;;;3.50;;
57567;SDS011;43403;51.948;5.922;2022-12-19T17:38:56;6.50;;;3.45;;